Time;durP1;ratioP1;P1;durP2;ratioP2;P2;SDS_P1;SDS_P2;PMS_P1;PMS_P2;Temp;Humidity;BMP_temperature;BMP_pressure;BME280_temperature;BME280_humidity;BME280_pressure;Samples;Min_cycle;Max_cycle;Signal;HPM_P1;HPM_P2
2022/10/11 00:01:41;;;;;;;2.20;1.90;;;;;;;6.10;86.93;102381.38;4974297;28;20138;-86
2022/10/11 00:04:08;;;;;;;3.07;1.90;;;;;;;6.07;86.92;102388.16;4975063;28;20498;-86
2022/10/11 00:06:33;;;;;;;3.05;2.10;;;;;;;6.06;86.95;102381.25;4974645;28;20027;-86
2022/10/11 00:08:58;;;;;;;3.10;2.03;;;;;;;6.02;86.90;102388.91;4975101;28;20058;-86
2022/10/11 00:11:23;;;;;;;2.80;1.90;;;;;;;6.01;87.00;102387.16;4974942;28;20618;-86
2022/10/11 00:13:49;;;;;;;2.85;1.88;;;;;;;5.98;86.96;102393.91;4974763;28;20031;-86
2022/10/11 00:16:14;;;;;;;3.47;2.08;;;;;;;5.94;86.97;102386.88;4975015;28;20409;-86
2022/10/11 00:18:40;;;;;;;2.35;2.00;;;;;;;5.92;86.99;102385.97;4975388;28;20089;-86
2022/10/11 00:21:10;;;;;;;3.67;2.10;;;;;;;5.90;86.97;102385.94;4974692;28;20062;-86
2022/10/11 00:23:37;;;;;;;2.13;1.90;;;;;;;5.86;86.99;102384.97;4974914;28;20034;-86
2022/10/11 00:26:04;;;;;;;3.13;2.07;;;;;;;5.85;86.92;102392.69;4974869;28;20110;-86
2022/10/11 00:28:30;;;;;;;3.28;1.85;;;;;;;5.79;86.80;102387.31;4974335;28;20286;-87
2022/10/11 00:30:55;;;;;;;2.03;1.80;;;;;;;5.72;87.03;102394.88;4974920;28;20019;-87
2022/10/11 00:33:21;;;;;;;3.15;2.00;;;;;;;5.70;87.06;102399.13;4975385;28;20026;-87
2022/10/11 00:35:47;;;;;;;3.38;2.15;;;;;;;5.70;87.44;102393.97;4975137;28;20027;-87
2022/10/11 00:38:13;;;;;;;2.57;1.80;;;;;;;5.72;87.04;102397.47;4975239;28;20125;-87
2022/10/11 00:40:38;;;;;;;3.05;2.10;;;;;;;5.71;87.08;102398.28;4974701;28;20483;-87
2022/10/11 00:43:03;;;;;;;2.85;1.92;;;;;;;5.73;87.26;102398.31;4974729;28;20118;-87
2022/10/11 00:45:29;;;;;;;2.88;2.10;;;;;;;5.73;87.13;102398.31;4975014;28;20101;-87
2022/10/11 00:47:59;;;;;;;3.08;1.92;;;;;;;5.72;87.35;102412.03;4974740;28;20037;-87
2022/10/11 00:50:29;;;;;;;2.92;2.00;;;;;;;5.70;87.00;102404.25;4974750;28;20034;-87
2022/10/11 00:52:58;;;;;;;3.25;2.00;;;;;;;5.68;87.10;102408.50;4974784;28;20023;-87
2022/10/11 00:55:28;;;;;;;2.33;2.10;;;;;;;5.66;87.09;102417.88;4975107;28;20042;-86
2022/10/11 00:57:55;;;;;;;2.55;2.00;;;;;;;5.64;87.22;102416.94;4974806;28;20066;-87
2022/10/11 01:00:24;;;;;;;3.15;2.03;;;;;;;5.62;87.08;102408.31;4974535;28;20530;-87
2022/10/11 01:02:49;;;;;;;3.00;2.13;;;;;;;5.60;87.10;102409.97;4977548;28;20125;-86
2022/10/11 01:05:17;;;;;;;3.15;1.90;;;;;;;5.59;87.11;102415.94;4978703;28;20159;-87
2022/10/11 01:07:44;;;;;;;2.88;2.00;;;;;;;5.56;87.34;102424.47;4978764;28;20031;-87
2022/10/11 01:10:10;;;;;;;4.05;2.22;;;;;;;5.56;87.22;102415.84;4977928;28;20023;-87
2022/10/11 01:12:43;;;;;;;2.25;2.00;;;;;;;5.54;86.97;102422.63;4978805;28;20035;-88
2022/10/11 01:15:34;;;;;;;2.00;1.80;;;;;;;5.46;87.08;102416.38;4978301;28;20069;-87
2022/10/11 01:18:13;;;;;;;2.60;1.80;;;;;;;5.45;87.01;102418.09;4978489;28;20034;-88
2022/10/11 01:21:05;;;;;;;1.88;1.73;;;;;;;5.42;87.16;102418.00;4978488;28;20031;-87
2022/10/11 01:23:59;;;;;;;2.22;1.90;;;;;;;5.39;87.26;102418.78;4968326;28;20046;-87
2022/10/11 01:26:46;;;;;;;2.70;1.90;;;;;;;5.38;87.49;102421.28;4942870;28;20114;-88
2022/10/11 01:29:38;;;;;;;2.28;2.08;;;;;;;5.38;87.37;102424.75;4978177;28;20041;-88
2022/10/11 01:32:30;;;;;;;2.53;1.95;;;;;;;5.36;87.06;102425.50;4977899;28;20464;-88
2022/10/11 01:35:09;;;;;;;2.10;1.90;;;;;;;5.32;87.25;102418.53;4973509;28;20123;-88
2022/10/11 01:37:45;;;;;;;2.10;1.90;;;;;;;5.30;87.15;102428.75;4978161;28;20098;-88
2022/10/11 01:40:17;;;;;;;2.10;1.90;;;;;;;5.30;87.27;102423.63;4977915;28;20118;-89
2022/10/11 01:42:44;;;;;;;2.70;1.80;;;;;;;5.25;87.08;102430.31;4978349;28;20027;-88
2022/10/11 01:45:15;;;;;;;1.77;1.60;;;;;;;5.21;86.97;102431.94;4977696;28;20030;-88
2022/10/11 01:47:41;;;;;;;1.77;1.67;;;;;;;5.19;87.25;102435.25;4978051;28;20101;-88
2022/10/11 01:50:37;;;;;;;1.85;1.75;;;;;;;5.15;87.34;102434.28;4978207;28;20035;-88
2022/10/11 01:53:21;;;;;;;;;;;;;;;5.12;87.19;102435.91;4978319;28;20070;-88
2022/10/11 01:55:53;;;;;;;1.80;1.67;;;;;;;5.10;86.97;102436.72;4978160;28;19968;-88
2022/10/11 01:58:44;;;;;;;1.80;1.70;;;;;;;5.08;86.67;102438.34;4978235;28;20390;-89
2022/10/11 02:01:40;;;;;;;1.70;1.60;;;;;;;5.06;87.22;102444.28;4977347;28;20058;-89
2022/10/11 02:04:18;;;;;;;1.50;1.40;;;;;;;5.02;87.36;102437.28;4977889;28;20064;-88
2022/10/11 02:06:55;;;;;;;1.70;1.60;;;;;;;4.97;87.35;102434.56;4977898;28;20026;-88
2022/10/11 02:09:34;;;;;;;;;;;;;;;4.93;87.08;102443.88;4978411;28;20031;-89
2022/10/11 02:12:06;;;;;;;1.73;1.63;;;;;;;4.91;87.36;102444.66;4977766;28;20004;-88
2022/10/11 02:14:37;;;;;;;1.70;1.60;;;;;;;4.89;87.09;102441.16;4976746;28;20037;-88
2022/10/11 02:17:16;;;;;;;1.80;1.70;;;;;;;4.87;87.22;102442.78;4977780;28;20030;-88
2022/10/11 02:19:46;;;;;;;1.70;1.60;;;;;;;4.85;87.41;102445.31;4977507;28;20121;-89
2022/10/11 02:22:19;;;;;;;2.58;1.65;;;;;;;4.86;87.44;102449.66;4977470;28;20057;-89
2022/10/11 02:24:49;;;;;;;2.83;1.88;;;;;;;4.86;87.44;102447.06;4977318;28;20085;-89
2022/10/11 02:27:17;;;;;;;1.80;1.70;;;;;;;4.82;87.21;102437.50;4977471;28;20526;-88
2022/10/11 02:29:46;;;;;;;2.30;1.80;;;;;;;4.85;87.63;102450.47;4977827;28;20019;-89
2022/10/11 02:32:12;;;;;;;2.58;1.85;;;;;;;4.84;87.44;102453.00;4977182;28;20045;-89
2022/10/11 02:34:48;;;;;;;2.53;1.90;;;;;;;4.85;87.47;102449.56;4977395;28;20026;-89
2022/10/11 02:37:28;;;;;;;1.65;1.55;;;;;;;4.82;87.52;102452.06;4977402;28;20031;-89
2022/10/11 02:40:00;;;;;;;2.00;1.67;;;;;;;4.80;87.25;102452.00;4977173;28;20113;-89
2022/10/11 02:42:32;;;;;;;2.03;1.80;;;;;;;4.81;87.38;102452.88;4977554;28;20038;-89
2022/10/11 02:45:22;;;;;;;2.38;2.00;;;;;;;4.78;87.39;102454.53;4977026;28;20046;-89
2022/10/11 02:47:48;;;;;;;2.17;1.98;;;;;;;4.79;87.40;102458.84;4977052;28;20030;-89
2022/10/11 02:50:15;;;;;;;1.92;1.83;;;;;;;4.82;87.56;102454.63;4977017;28;20034;-89
2022/10/11 02:52:40;;;;;;;2.35;1.85;;;;;;;4.80;87.21;102454.56;4977215;28;20046;-89
2022/10/11 02:55:06;;;;;;;2.08;1.88;;;;;;;4.75;87.17;102450.97;4976512;28;20031;-89
2022/10/11 02:57:32;;;;;;;1.90;1.80;;;;;;;4.71;87.43;102452.56;4976633;28;20107;-89
2022/10/11 02:59:57;;;;;;;2.30;1.70;;;;;;;4.71;87.46;102455.16;4976593;28;20054;-89
2022/10/11 03:02:22;;;;;;;2.33;2.00;;;;;;;4.71;87.40;102457.72;4976626;28;20039;-89
2022/10/11 03:04:48;;;;;;;3.83;1.90;;;;;;;4.70;87.17;102453.38;4976689;28;20055;-89
2022/10/11 03:07:13;;;;;;;2.33;1.80;;;;;;;4.66;87.09;102451.53;4976305;28;20122;-89
2022/10/11 03:09:39;;;;;;;3.35;1.80;;;;;;;4.67;87.31;102450.69;4976995;28;20357;-89
2022/10/11 03:12:04;;;;;;;2.08;1.83;;;;;;;4.66;87.56;102451.53;4976691;28;20357;-88
2022/10/11 03:14:30;;;;;;;1.70;1.60;;;;;;;4.62;87.37;102453.09;4976547;28;20034;-89
2022/10/11 03:16:55;;;;;;;1.85;1.70;;;;;;;4.62;87.61;102458.25;4976639;28;20090;-90
2022/10/11 03:19:20;;;;;;;2.20;1.90;;;;;;;4.62;87.91;102462.50;4976502;28;20030;-89
2022/10/11 03:21:46;;;;;;;2.10;1.70;;;;;;;4.59;87.51;102459.84;4976394;28;20035;-90
2022/10/11 03:24:11;;;;;;;3.08;1.80;;;;;;;4.58;87.64;102463.25;4975639;28;20018;-89
2022/10/11 03:26:36;;;;;;;2.13;1.80;;;;;;;4.59;87.52;102463.28;4976539;28;20177;-90
2022/10/11 03:29:02;;;;;;;2.63;1.98;;;;;;;4.61;87.57;102464.22;4976171;28;20019;-90
2022/10/11 03:31:27;;;;;;;2.45;1.92;;;;;;;4.59;87.48;102463.28;4976468;28;20027;-90
2022/10/11 03:33:52;;;;;;;2.72;1.90;;;;;;;4.55;87.44;102465.69;4976155;28;20117;-90
2022/10/11 03:36:17;;;;;;;1.90;1.70;;;;;;;4.48;87.04;102474.88;4976140;28;20053;-90
2022/10/11 03:38:43;;;;;;;2.95;1.70;;;;;;;4.43;87.71;102472.16;4975812;28;20109;-89
2022/10/11 03:41:08;;;;;;;1.73;1.63;;;;;;;4.39;87.77;102470.28;4975999;28;20065;-90
2022/10/11 03:43:34;;;;;;;2.53;1.70;;;;;;;4.39;87.62;102470.28;4976227;28;20077;-90
2022/10/11 03:45:59;;;;;;;2.15;1.77;;;;;;;4.34;87.47;102469.25;4976054;28;20027;-89
2022/10/11 03:48:24;;;;;;;1.80;1.70;;;;;;;4.31;87.62;102477.72;4975840;28;20093;-90
2022/10/11 03:50:49;;;;;;;2.45;1.80;;;;;;;4.31;87.90;102476.84;4975650;28;20037;-89
2022/10/11 03:53:15;;;;;;;1.85;1.73;;;;;;;4.32;87.79;102478.59;4975904;28;20114;-89
2022/10/11 03:55:40;;;;;;;2.50;1.70;;;;;;;4.31;87.76;102479.41;4975544;28;20033;-90
2022/10/11 03:58:06;;;;;;;2.15;1.58;;;;;;;4.28;87.80;102477.59;4975830;28;20035;-90
2022/10/11 04:00:32;;;;;;;1.90;1.70;;;;;;;4.28;87.77;102487.88;4976130;28;20034;-90
2022/10/11 04:02:58;;;;;;;1.90;1.70;;;;;;;4.24;87.66;102491.16;4975371;28;20053;-89
2022/10/11 04:05:24;;;;;;;1.70;1.60;;;;;;;4.23;87.33;102493.66;4975567;28;20407;-90
2022/10/11 04:07:50;;;;;;;1.83;1.60;;;;;;;4.20;87.99;102484.16;4975910;28;20382;-89
2022/10/11 04:10:15;;;;;;;2.15;1.65;;;;;;;4.16;87.69;102493.44;4975792;28;20038;-90
2022/10/11 04:12:41;;;;;;;2.15;1.70;;;;;;;4.15;87.65;102494.28;4975741;28;20023;-89
2022/10/11 04:15:06;;;;;;;1.70;1.60;;;;;;;4.15;87.21;102491.69;4975175;28;20487;-89
2022/10/11 04:17:32;;;;;;;1.67;1.50;;;;;;;4.15;88.04;102493.38;4975777;28;20030;-89
2022/10/11 04:19:57;;;;;;;1.60;1.50;;;;;;;4.11;88.02;102497.53;4975314;28;20023;-89
2022/10/11 04:22:22;;;;;;;2.70;1.80;;;;;;;4.12;87.54;102507.00;4975694;28;20039;-89
2022/10/11 04:24:48;;;;;;;2.20;1.75;;;;;;;4.11;87.69;102504.38;4975696;28;20434;-89
2022/10/11 04:27:13;;;;;;;2.35;1.77;;;;;;;4.09;87.77;102506.88;4975225;28;20050;-90
2022/10/11 04:29:38;;;;;;;2.10;1.90;;;;;;;4.08;87.62;102517.09;4975471;28;20029;-90
2022/10/11 04:32:03;;;;;;;2.15;1.60;;;;;;;4.03;87.87;102509.22;4974805;28;20022;-89
2022/10/11 04:34:29;;;;;;;1.70;1.60;;;;;;;4.01;87.96;102505.72;4975482;28;20027;-89
2022/10/11 04:36:54;;;;;;;2.00;1.80;;;;;;;4.02;87.90;102513.47;4974023;28;20031;-90
2022/10/11 04:39:19;;;;;;;3.72;1.80;;;;;;;4.01;87.57;102518.56;4975146;28;20026;-89
2022/10/11 04:41:45;;;;;;;1.80;1.70;;;;;;;3.99;87.77;102515.03;4974847;28;20038;-89
2022/10/11 04:44:10;;;;;;;2.22;1.55;;;;;;;3.98;88.07;102516.75;4975300;28;20119;-89
2022/10/11 04:46:35;;;;;;;2.05;1.85;;;;;;;3.95;87.87;102514.06;4974849;28;20023;-89
2022/10/11 04:49:00;;;;;;;2.13;1.80;;;;;;;3.96;88.04;102515.81;4975002;28;20375;-89
2022/10/11 04:51:26;;;;;;;4.38;1.90;;;;;;;3.96;87.92;102517.47;4974924;28;20123;-89
2022/10/11 04:53:51;;;;;;;1.65;1.55;;;;;;;3.96;87.84;102517.47;4975074;28;20029;-89
2022/10/11 04:56:17;;;;;;;2.03;1.70;;;;;;;3.95;87.90;102524.31;4974786;28;20023;-89
2022/10/11 04:58:44;;;;;;;2.13;1.80;;;;;;;3.94;87.88;102535.41;4974914;28;20038;-88
2022/10/11 05:01:10;;;;;;;1.88;1.70;;;;;;;3.93;88.24;102520.81;4974551;28;20051;-89
2022/10/11 05:03:36;;;;;;;1.83;1.70;;;;;;;3.92;87.97;102525.91;4974788;28;20029;-89
2022/10/11 05:06:01;;;;;;;2.13;1.83;;;;;;;3.90;87.78;102530.09;4974734;28;20058;-89
2022/10/11 05:08:27;;;;;;;2.03;1.63;;;;;;;3.90;87.85;102532.66;4974900;28;20383;-89
2022/10/11 05:10:55;;;;;;;2.40;1.73;;;;;;;3.89;87.76;102528.34;4974641;28;20018;-89
2022/10/11 05:13:20;;;;;;;2.42;1.90;;;;;;;3.86;87.83;102529.97;4974661;28;20059;-89
2022/10/11 05:15:46;;;;;;;1.90;1.80;;;;;;;3.84;88.05;102521.31;4974568;28;20023;-88
2022/10/11 05:18:11;;;;;;;2.35;1.90;;;;;;;3.84;88.03;102529.03;4974286;28;20050;-88
2022/10/11 05:20:36;;;;;;;2.15;1.95;;;;;;;3.84;88.22;102531.59;4975591;28;20023;-86
2022/10/11 05:23:01;;;;;;;3.20;2.08;;;;;;;3.84;87.97;102530.72;4974492;28;20041;-88
2022/10/11 05:25:27;;;;;;;3.20;2.00;;;;;;;3.84;87.66;102538.44;4974323;28;20027;-87
2022/10/11 05:27:52;;;;;;;2.58;2.10;;;;;;;3.81;87.70;102541.75;4974537;28;20475;-88
2022/10/11 05:30:17;;;;;;;2.78;2.00;;;;;;;3.81;87.59;102541.75;4974906;28;20043;-88
2022/10/11 05:32:42;;;;;;;3.38;2.00;;;;;;;3.81;87.49;102535.72;4974331;28;20090;-88
2022/10/11 05:35:08;;;;;;;2.58;1.92;;;;;;;3.78;87.28;102538.19;4974550;28;20033;-88
2022/10/11 05:37:33;;;;;;;2.15;1.95;;;;;;;3.76;87.89;102544.97;4974528;28;20073;-88
2022/10/11 05:39:58;;;;;;;2.33;1.92;;;;;;;3.72;87.69;102543.94;4974004;28;20086;-88
2022/10/11 05:42:24;;;;;;;2.33;1.90;;;;;;;3.68;87.66;102542.09;4974593;28;20050;-86
2022/10/11 05:44:59;;;;;;;2.17;1.70;;;;;;;3.66;87.72;102551.41;4973800;28;20476;-87
2022/10/11 05:47:25;;;;;;;2.65;2.10;;;;;;;3.64;88.28;102550.47;4975374;28;20030;-87
2022/10/11 05:49:57;;;;;;;3.05;2.20;;;;;;;3.65;87.96;102554.78;4978041;28;20023;-88
2022/10/11 05:52:22;;;;;;;2.20;2.00;;;;;;;3.66;88.02;102554.84;4977981;28;20114;-88
2022/10/11 05:54:53;;;;;;;2.63;1.88;;;;;;;3.64;87.83;102559.06;4978062;28;20101;-88
2022/10/11 05:57:19;;;;;;;2.08;1.90;;;;;;;3.59;87.94;102552.84;4978197;28;20045;-89
2022/10/11 05:59:44;;;;;;;4.15;2.00;;;;;;;3.60;87.87;102557.16;4977716;28;20027;-88
2022/10/11 06:02:12;;;;;;;2.38;1.90;;;;;;;3.62;87.74;102563.25;4977490;28;20043;-88
2022/10/11 06:04:37;;;;;;;2.75;2.00;;;;;;;3.60;87.88;102575.16;4977805;28;20026;-86
2022/10/11 06:07:03;;;;;;;2.55;2.00;;;;;;;3.55;88.06;102563.78;4976817;28;20085;-85
2022/10/11 06:09:29;;;;;;;2.88;2.15;;;;;;;3.59;87.81;102564.81;4976170;28;20066;-84
2022/10/11 06:11:54;;;;;;;2.85;2.10;;;;;;;3.58;87.94;102570.75;4976496;28;20026;-84
2022/10/11 06:14:20;;;;;;;2.78;2.10;;;;;;;3.57;88.22;102571.56;4976439;28;20029;-85
2022/10/11 06:16:50;;;;;;;3.03;2.05;;;;;;;3.59;87.99;102581.09;4976429;28;20027;-85
2022/10/11 06:19:16;;;;;;;3.10;2.00;;;;;;;3.58;87.92;102574.19;4977050;28;20055;-85
2022/10/11 06:21:41;;;;;;;2.13;1.92;;;;;;;3.59;87.87;102573.38;4976007;28;20063;-85
2022/10/11 06:24:12;;;;;;;2.90;2.10;;;;;;;3.63;88.40;102582.09;4976297;28;20019;-84
2022/10/11 06:26:37;;;;;;;2.00;1.80;;;;;;;3.68;88.03;102585.75;4976496;28;20030;-85
2022/10/11 06:29:03;;;;;;;2.85;2.10;;;;;;;3.69;88.31;102590.06;4976738;28;20021;-85
2022/10/11 06:31:29;;;;;;;3.17;2.20;;;;;;;3.66;88.07;102583.09;4976197;28;20427;-85
2022/10/11 06:33:54;;;;;;;3.42;2.20;;;;;;;3.67;88.07;102589.13;4976059;28;20113;-85
2022/10/11 06:36:20;;;;;;;2.63;1.90;;;;;;;3.66;88.05;102593.34;4976664;28;20054;-86
2022/10/11 06:38:45;;;;;;;2.10;1.90;;;;;;;3.69;87.96;102592.63;4977429;28;20034;-89
2022/10/11 06:41:23;;;;;;;2.70;1.90;;;;;;;3.71;87.77;102596.16;4977009;28;20146;-89
2022/10/11 06:43:48;;;;;;;1.95;1.75;;;;;;;3.74;88.53;102597.94;4977381;28;20034;-89
2022/10/11 06:46:14;;;;;;;2.42;1.80;;;;;;;3.82;88.13;102604.28;4977092;28;20027;-88
2022/10/11 06:48:42;;;;;;;2.15;1.95;;;;;;;3.92;88.44;102605.53;4976809;28;20030;-90
2022/10/11 06:51:08;;;;;;;2.08;1.70;;;;;;;3.99;88.50;102600.72;4977202;28;20141;-90
2022/10/11 06:53:34;;;;;;;1.95;1.75;;;;;;;4.09;88.55;102603.66;4977397;28;20030;-90
2022/10/11 06:56:17;;;;;;;1.88;1.77;;;;;;;4.20;88.69;102610.09;4977052;28;20023;-90
2022/10/11 06:58:43;;;;;;;2.08;1.80;;;;;;;4.26;88.38;102615.47;4976627;28;20022;-90
2022/10/11 07:01:12;;;;;;;3.13;1.83;;;;;;;4.33;88.98;102616.56;4976569;28;20567;-90
2022/10/11 07:03:37;;;;;;;2.88;1.92;;;;;;;4.37;88.29;102613.31;4977014;28;20023;-90
2022/10/11 07:06:09;;;;;;;2.22;1.85;;;;;;;4.41;88.73;102606.59;4976360;28;20087;-88
2022/10/11 07:08:34;;;;;;;2.22;1.80;;;;;;;4.50;88.78;102613.81;4976195;28;20472;-89
2022/10/11 07:11:08;;;;;;;1.80;1.70;;;;;;;4.58;88.73;102620.97;4976822;28;20077;-90
2022/10/11 07:13:35;;;;;;;1.83;1.70;;;;;;;4.66;89.71;102616.13;4976210;28;20037;-90
2022/10/11 07:16:06;;;;;;;1.33;1.30;;;;;;;4.73;89.32;102620.66;4975669;28;20018;-90
2022/10/11 07:18:31;;;;;;;1.92;1.65;;;;;;;4.82;89.00;102625.28;4976075;28;20065;-90
2022/10/11 07:20:57;;;;;;;1.80;1.70;;;;;;;4.88;89.07;102619.50;4976558;28;20102;-90
2022/10/11 07:23:23;;;;;;;1.70;1.60;;;;;;;4.94;89.49;102619.72;4976306;28;20034;-90
2022/10/11 07:25:53;;;;;;;1.48;1.38;;;;;;;5.03;89.58;102614.03;4976721;28;20027;-90
2022/10/11 07:28:18;;;;;;;1.40;1.30;;;;;;;5.11;89.68;102625.50;4977651;28;20451;-90
2022/10/11 07:30:43;;;;;;;1.50;1.40;;;;;;;5.17;90.38;102624.84;4977479;28;20023;-90
2022/10/11 07:33:09;;;;;;;1.80;1.70;;;;;;;5.26;91.18;102628.59;4979924;28;20048;-90
2022/10/11 07:35:34;;;;;;;1.77;1.67;;;;;;;5.34;91.29;102636.59;4977664;28;20031;-90
2022/10/11 07:38:00;;;;;;;3.45;2.22;;;;;;;5.47;93.08;102634.44;4975381;28;20031;-89
2022/10/11 07:40:25;;;;;;;2.53;2.15;;;;;;;5.58;91.61;102640.84;4976133;28;20058;-89
2022/10/11 07:42:50;;;;;;;3.47;1.80;;;;;;;5.68;91.52;102637.75;4975964;28;20062;-90
2022/10/11 07:45:16;;;;;;;2.92;2.17;;;;;;;5.79;92.55;102634.66;4975316;28;20388;-89
2022/10/11 07:47:45;;;;;;;2.58;2.10;;;;;;;5.87;92.87;102636.69;4975749;28;20027;-88
2022/10/11 07:50:10;;;;;;;2.35;2.00;;;;;;;5.93;92.13;102635.13;4975803;28;20023;-89
2022/10/11 07:52:35;;;;;;;2.03;1.80;;;;;;;5.98;92.14;102634.44;4975580;28;20034;-88
2022/10/11 07:55:01;;;;;;;1.80;1.70;;;;;;;6.07;92.44;102639.06;4975298;28;20416;-89
2022/10/11 07:57:26;;;;;;;1.85;1.73;;;;;;;6.14;93.32;102643.56;4975801;28;20034;-88
2022/10/11 07:59:51;;;;;;;3.05;2.13;;;;;;;6.24;93.12;102649.06;4974670;28;20021;-89
2022/10/11 08:02:16;;;;;;;2.03;1.80;;;;;;;6.30;92.54;102644.06;4975414;28;20057;-89
2022/10/11 08:04:42;;;;;;;1.88;1.60;;;;;;;6.41;93.05;102639.28;4975222;28;20502;-88
2022/10/11 08:07:07;;;;;;;2.70;2.40;;;;;;;6.54;94.89;102643.94;4974972;28;20033;-88
2022/10/11 08:09:32;;;;;;;3.70;2.70;;;;;;;6.68;94.37;102646.97;4975520;28;20491;-88
2022/10/11 08:11:58;;;;;;;3.47;2.20;;;;;;;6.81;93.77;102653.34;4974087;28;20027;-89
2022/10/11 08:14:23;;;;;;;2.20;2.00;;;;;;;6.92;93.49;102656.25;4975375;28;20022;-88
2022/10/11 08:16:48;;;;;;;2.28;1.77;;;;;;;7.03;92.80;102651.41;4975608;28;20035;-88
2022/10/11 08:19:14;;;;;;;1.77;1.67;;;;;;;7.14;93.24;102656.88;4974441;28;20030;-88
2022/10/11 08:21:40;;;;;;;2.15;1.95;;;;;;;7.29;94.49;102654.69;4975632;28;20022;-88
2022/10/11 08:24:06;;;;;;;2.60;2.40;;;;;;;7.50;96.17;102656.09;4975298;28;20090;-89
2022/10/11 08:26:33;;;;;;;4.57;2.78;;;;;;;7.70;96.18;102654.94;4974277;28;20109;-89
2022/10/11 08:29:02;;;;;;;3.20;2.40;;;;;;;7.85;94.98;102658.75;4974914;28;20069;-89
2022/10/11 08:31:27;;;;;;;3.40;2.10;;;;;;;7.98;94.83;102659.94;4974020;28;20026;-88
2022/10/11 08:33:52;;;;;;;2.67;2.20;;;;;;;8.14;94.64;102664.63;4974366;28;20046;-88
2022/10/11 08:36:18;;;;;;;5.10;2.77;;;;;;;8.32;95.73;102663.34;4975495;28;20031;-88
2022/10/11 08:38:43;;;;;;;7.73;3.30;;;;;;;8.58;96.13;102681.19;4975588;28;20022;-88
2022/10/11 08:41:26;;;;;;;5.63;3.30;;;;;;;8.78;94.81;102669.56;4974243;28;20026;-89
2022/10/11 08:44:04;;;;;;;2.72;2.47;;;;;;;8.92;94.08;102669.88;4974748;28;20023;-88
2022/10/11 08:46:32;;;;;;;3.03;2.20;;;;;;;9.06;93.57;102669.28;4975192;28;20384;-88
2022/10/11 08:48:59;;;;;;;7.72;3.13;;;;;;;9.22;93.72;102665.28;4974167;28;20046;-88
2022/10/11 08:51:50;;;;;;;3.35;2.38;;;;;;;9.36;93.18;102665.53;4974676;28;20027;-88
2022/10/11 08:54:27;;;;;;;2.00;1.90;;;;;;;9.51;92.84;102671.03;4971607;28;20043;-88
2022/10/11 08:56:53;;;;;;;1.67;1.58;;;;;;;9.65;92.51;102675.56;4955073;28;20035;-88
2022/10/11 08:59:43;;;;;;;1.83;1.50;;;;;;;9.79;92.22;102671.50;4956344;28;20023;-86
2022/10/11 09:02:26;;;;;;;1.42;1.33;;;;;;;9.94;91.87;102681.25;4953662;28;20143;-85
2022/10/11 09:04:53;;;;;;;1.50;1.40;;;;;;;10.07;91.71;102679.75;4955464;28;20028;-93
2022/10/11 09:07:43;;;;;;;1.55;1.23;;;;;;;10.22;91.44;102681.72;4965922;28;20031;-87
2022/10/11 09:10:54;;;;;;;1.60;1.50;;;;;;;10.40;91.04;102680.28;4972586;28;20549;-87
2022/10/11 09:13:41;;;;;;;1.30;1.20;;;;;;;10.52;90.24;102680.47;4959825;28;20516;-87
2022/10/11 09:16:38;;;;;;;2.55;1.60;;;;;;;10.68;89.75;102685.88;4954789;28;20094;-88
2022/10/11 09:19:28;;;;;;;1.30;1.20;;;;;;;10.82;89.54;102684.31;4955381;28;20106;-88
2022/10/11 09:22:00;;;;;;;1.00;1.00;;;;;;;10.97;89.40;102681.94;4955309;28;20094;-88
2022/10/11 09:24:51;;;;;;;1.10;1.00;;;;;;;11.13;89.14;102683.00;4972999;28;20118;-87
2022/10/11 09:27:30;;;;;;;1.05;0.98;;;;;;;11.25;89.02;102689.19;4977968;28;20072;-88
2022/10/11 09:30:08;;;;;;;0.90;0.90;;;;;;;11.36;88.56;102691.91;4961496;28;20075;-87
2022/10/11 09:32:44;;;;;;;1.45;1.27;;;;;;;11.43;87.98;102678.97;4958796;28;20078;-87
2022/10/11 09:35:11;;;;;;;0.90;0.90;;;;;;;11.51;87.84;102691.22;4958454;28;20109;-86
2022/10/11 09:37:48;;;;;;;0.98;0.82;;;;;;;11.56;87.24;102680.00;4958373;28;20032;-88
2022/10/11 09:40:32;;;;;;;0.50;0.50;;;;;;;11.66;87.60;102678.34;4958794;28;20059;-88
2022/10/11 09:42:58;;;;;;;0.80;0.80;;;;;;;11.76;87.39;102681.91;4958772;29;20547;-88
2022/10/11 09:45:24;;;;;;;0.68;0.60;;;;;;;11.86;86.90;102685.47;4970796;28;20034;-88
2022/10/11 09:47:52;;;;;;;0.67;0.60;;;;;;;11.97;86.68;102688.16;4978036;28;20361;-88
2022/10/11 09:50:22;;;;;;;3.35;1.77;;;;;;;12.09;85.23;102677.88;4978155;28;20026;-87
2022/10/11 09:52:51;;;;;;;1.55;1.35;;;;;;;12.23;84.95;102684.94;4978270;28;20050;-88
2022/10/11 09:55:52;;;;;;;1.42;1.00;;;;;;;12.41;84.31;102686.81;4977979;28;20475;-88
2022/10/11 09:58:34;;;;;;;1.15;0.68;;;;;;;12.57;81.67;102690.38;4966799;28;20046;-88
2022/10/11 10:01:07;;;;;;;4.10;1.70;;;;;;;12.73;80.31;102689.56;4977843;28;20502;-91
2022/10/11 10:03:39;;;;;;;4.28;1.90;;;;;;;12.91;80.27;102687.94;4977796;28;20029;-86
2022/10/11 10:06:20;;;;;;;3.72;1.80;;;;;;;13.05;80.25;102683.66;4977174;28;20041;-88
2022/10/11 10:08:46;;;;;;;3.10;1.50;;;;;;;13.17;80.90;102690.66;4978031;28;20031;-88
2022/10/11 10:11:13;;;;;;;4.67;1.90;;;;;;;13.27;73.18;102691.56;4977447;28;20078;-90
2022/10/11 10:13:50;;;;;;;4.30;1.58;;;;;;;13.40;77.82;102685.50;4977736;28;20023;-89
2022/10/11 10:16:28;;;;;;;2.17;1.42;;;;;;;13.54;79.09;102682.06;4977813;28;20042;-89
2022/10/11 10:18:56;;;;;;;2.38;1.00;;;;;;;13.62;78.78;102688.19;4977130;28;20039;-88
2022/10/11 10:21:34;;;;;;;1.95;0.70;;;;;;;13.70;78.33;102682.97;4977127;28;20121;-88
2022/10/11 10:24:06;;;;;;;2.00;1.05;;;;;;;13.74;75.18;102685.56;4977557;28;20027;-89
2022/10/11 10:26:32;;;;;;;1.15;0.77;;;;;;;13.79;76.97;102675.13;4977467;28;20027;-89
2022/10/11 10:29:08;;;;;;;1.03;0.63;;;;;;;13.88;77.74;102679.50;4977370;28;20033;-88
2022/10/11 10:31:48;;;;;;;1.08;0.68;;;;;;;13.96;69.97;102676.91;4958288;28;20051;-88
2022/10/11 10:34:18;;;;;;;2.72;0.77;;;;;;;14.04;73.24;102677.75;4956027;28;20035;-89
2022/10/11 10:36:54;;;;;;;1.10;0.60;;;;;;;14.13;75.53;102676.88;4958095;28;20031;-88
2022/10/11 10:39:30;;;;;;;;;;;;;;;14.22;75.00;102679.47;4958310;29;20106;-89
2022/10/11 10:41:55;;;;;;;3.67;1.40;;;;;;;14.26;67.39;102675.13;4957193;29;19918;-89
2022/10/11 10:44:21;;;;;;;1.80;0.90;;;;;;;14.33;73.06;102682.09;4958120;29;20107;-89
2022/10/11 10:47:08;;;;;;;0.83;0.53;;;;;;;14.43;65.18;102680.31;4957921;29;20030;-89
2022/10/11 10:49:47;;;;;;;2.60;1.08;;;;;;;14.46;69.62;102677.69;4977400;28;20033;-89
2022/10/11 10:52:43;;;;;;;9.25;2.22;;;;;;;14.34;59.14;102679.47;4977148;28;20035;-88
2022/10/11 10:55:27;;;;;;;6.60;1.90;;;;;;;14.25;62.87;102682.09;4976824;28;20356;-89
2022/10/11 10:58:05;;;;;;;7.90;2.20;;;;;;;14.18;58.19;102672.53;4957595;29;20089;-88
2022/10/11 11:00:49;;;;;;;8.25;1.92;;;;;;;14.17;60.07;102671.66;4957990;29;20027;-89
2022/10/11 11:03:40;;;;;;;3.22;1.52;;;;;;;14.20;57.54;102676.00;4957747;28;20046;-88
2022/10/11 11:06:20;;;;;;;4.55;1.50;;;;;;;14.29;58.91;102669.91;4956797;28;20094;-89
2022/10/11 11:09:16;;;;;;;4.45;1.42;;;;;;;14.36;61.09;102669.91;4957278;29;20111;-89
2022/10/11 11:11:41;;;;;;;;;;;;;;;14.42;65.01;102662.91;4958148;29;20039;-91
2022/10/11 11:14:31;;;;;;;2.80;1.00;;;;;;;14.48;66.38;102668.13;4957287;29;20274;-91
2022/10/11 11:17:14;;;;;;;1.75;1.10;;;;;;;14.51;63.72;102658.53;4974963;28;20031;-89
2022/10/11 11:20:07;;;;;;;2.65;0.93;;;;;;;14.56;63.91;102662.88;4976750;28;20375;-89
2022/10/11 11:22:51;;;;;;;2.15;1.00;;;;;;;14.62;65.85;102657.63;4976661;28;20031;-92
2022/10/11 11:25:45;;;;;;;3.53;1.02;;;;;;;14.70;67.02;102661.09;4976615;28;20019;-92
2022/10/11 11:28:47;;;;;;;1.70;0.90;;;;;;;14.79;66.10;102650.66;4975953;28;20538;-90
2022/10/11 11:31:27;;;;;;;2.75;0.88;;;;;;;14.86;64.04;102656.69;4956400;28;20093;-95
2022/10/11 11:34:17;;;;;;;4.10;1.20;;;;;;;14.92;64.75;102651.44;4976570;28;20057;-91
2022/10/11 11:36:50;;;;;;;1.83;1.02;;;;;;;14.94;63.81;102646.19;4976305;28;20081;-92
2022/10/11 11:39:21;;;;;;;4.53;1.20;;;;;;;14.95;63.23;102647.94;4976188;28;20035;-91
2022/10/11 11:41:55;;;;;;;5.22;1.55;;;;;;;14.94;57.43;102648.81;4976331;28;20026;-91
2022/10/11 11:44:30;;;;;;;4.22;1.48;;;;;;;14.94;62.90;102641.88;4976259;28;20037;-91
2022/10/11 11:47:01;;;;;;;4.50;0.98;;;;;;;14.94;57.36;102641.88;4975473;28;20023;-91
2022/10/11 11:49:34;;;;;;;4.47;1.40;;;;;;;14.88;58.12;102631.41;4976588;28;20435;-91